Time;durP1;ratioP1;P1;durP2;ratioP2;P2;SDS_P1;SDS_P2;PMS_P1;PMS_P2;Temp;Humidity;BMP_temperature;BMP_pressure;BME280_temperature;BME280_humidity;BME280_pressure;Samples;Min_cycle;Max_cycle;Signal;HPM_P1;HPM_P2
2022/12/22 03:27:25;;;;;;;41.63;18.50;;;2.80;99.90;;;0.34;94.32;100190.41;10548531;28;20261;-79
2022/12/22 03:32:28;;;;;;;50.33;21.90;;;2.80;99.90;;;0.32;94.48;100183.63;10564561;28;20348;-79
2022/12/22 03:37:31;;;;;;;49.13;19.93;;;2.80;99.90;;;0.25;94.54;100173.56;10561553;28;20061;-79
2022/12/22 03:47:56;;;;;;;53.90;21.47;;;2.70;99.90;;;0.15;95.90;100167.28;10563326;28;20102;-79
2022/12/22 03:52:59;;;;;;;57.43;23.47;;;2.60;99.90;;;0.09;96.30;100178.13;10526779;28;20496;-79
2022/12/22 03:58:02;;;;;;;54.77;23.17;;;2.50;99.90;;;0.06;97.04;100172.28;10548007;28;20585;-79
2022/12/22 04:03:05;;;;;;;58.13;23.37;;;2.50;99.90;;;0.04;97.34;100168.94;10527706;28;20147;-79
2022/12/22 04:08:08;;;;;;;60.23;23.27;;;2.50;99.90;;;0.01;97.86;100177.00;10536014;28;20585;-79
2022/12/22 04:13:11;;;;;;;49.30;22.07;;;2.50;99.90;;;-0.01;98.17;100179.69;10545860;28;20060;-79
2022/12/22 04:18:14;;;;;;;40.47;19.20;;;2.40;99.90;;;-0.01;98.67;100183.13;10545450;28;20060;-79
2022/12/22 04:23:17;;;;;;;50.97;21.80;;;2.40;99.90;;;0.00;99.09;100178.75;10546939;28;20114;-79
2022/12/22 04:28:20;;;;;;;44.33;18.33;;;2.40;99.90;;;0.03;99.21;100173.31;10544158;28;20139;-79
2022/12/22 04:33:24;;;;;;;46.00;20.33;;;2.50;99.90;;;0.08;99.69;100175.63;10545029;28;20109;-79
2022/12/22 04:38:27;;;;;;;42.03;19.50;;;2.50;99.90;;;0.13;100.00;100168.34;10569225;28;20067;-79
2022/12/22 04:43:30;;;;;;;40.20;18.73;;;2.60;99.90;;;0.16;100.00;100163.72;10546079;28;20147;-79
2022/12/22 04:48:34;;;;;;;45.10;21.63;;;2.60;99.90;;;0.20;100.00;100161.75;10562319;28;20147;-79
2022/12/22 04:53:36;;;;;;;54.23;23.93;;;2.70;99.90;;;0.23;100.00;100162.38;10537563;28;20114;-79
2022/12/22 04:58:39;;;;;;;46.50;21.07;;;2.70;99.90;;;0.26;100.00;100158.72;10571659;28;20055;-79
2022/12/22 05:03:42;;;;;;;57.93;24.10;;;2.70;99.90;;;0.31;100.00;100171.50;10564177;28;20064;-79
2022/12/22 05:08:45;;;;;;;40.30;19.10;;;2.80;99.90;;;0.32;100.00;100166.16;10550781;28;20071;-80
2022/12/22 05:13:48;;;;;;;52.07;22.87;;;2.80;99.90;;;0.35;100.00;100170.31;10557335;28;20120;-79
2022/12/22 05:18:51;;;;;;;51.53;22.90;;;2.80;99.90;;;0.35;100.00;100176.38;10548394;28;20109;-80
2022/12/22 05:23:54;;;;;;;60.03;24.47;;;2.80;99.90;;;0.36;100.00;100179.84;10558054;28;20056;-80
2022/12/22 05:28:58;;;;;;;68.83;28.87;;;2.80;99.90;;;0.36;100.00;100177.22;10555477;28;20411;-80
2022/12/22 05:34:00;;;;;;;51.80;23.83;;;2.80;99.90;;;0.39;100.00;100169.19;10563935;28;20424;-80
2022/12/22 05:39:03;;;;;;;46.80;21.47;;;2.80;99.90;;;0.40;100.00;100158.63;10544625;28;20061;-78
2022/12/22 05:44:06;;;;;;;59.80;26.07;;;2.90;99.90;;;0.39;100.00;100169.19;10552248;28;20064;-77
2022/12/22 05:49:09;;;;;;;51.10;22.70;;;2.90;99.90;;;0.40;100.00;100150.78;10565240;27;20067;-77
2022/12/22 05:54:12;;;;;;;46.30;19.97;;;2.90;99.90;;;0.40;100.00;100145.56;10550779;28;20150;-78
2022/12/22 05:59:15;;;;;;;48.73;22.40;;;2.80;99.90;;;0.38;100.00;100142.22;10522271;28;20064;-78
2022/12/22 06:04:18;;;;;;;50.33;22.07;;;2.80;99.90;;;0.36;100.00;100141.50;10552886;28;20090;-78
2022/12/22 06:09:22;;;;;;;83.30;34.47;;;2.80;99.90;;;0.33;100.00;100149.53;10548751;28;20060;-78
2022/12/22 06:14:25;;;;;;;110.37;43.77;;;2.80;99.90;;;0.29;100.00;100178.59;10562558;28;20062;-78
2022/12/22 06:19:28;;;;;;;82.47;34.73;;;2.80;99.90;;;0.27;100.00;100170.84;10572623;27;20109;-77
2022/12/22 06:24:31;;;;;;;60.03;25.70;;;2.70;99.90;;;0.29;100.00;100178.59;10547318;28;20067;-77
2022/12/22 06:29:34;;;;;;;56.77;24.80;;;2.80;99.90;;;0.29;100.00;100181.19;10581116;28;20101;-77
2022/12/22 06:34:37;;;;;;;52.73;25.30;;;2.80;99.90;;;0.31;100.00;100187.19;10536851;28;20052;-78
2022/12/22 06:39:40;;;;;;;48.83;23.13;;;2.80;99.90;;;0.32;100.00;100184.44;10541886;28;20052;-78
2022/12/22 06:44:43;;;;;;;66.43;27.67;;;2.80;99.90;;;0.36;100.00;100192.91;10542371;28;20515;-79
2022/12/22 06:49:46;;;;;;;63.17;27.77;;;2.80;99.90;;;0.34;100.00;100207.88;10558270;28;20236;-79
2022/12/22 06:54:49;;;;;;;65.43;29.33;;;2.80;99.90;;;0.31;100.00;100216.78;10546517;28;20056;-79
2022/12/22 06:59:53;;;;;;;59.77;25.73;;;2.70;99.90;;;0.32;100.00;100202.75;10560242;28;20472;-79
2022/12/22 07:04:59;;;;;;;68.60;28.60;;;2.70;99.90;;;0.30;100.00;100193.31;10542466;28;20133;-79
2022/12/22 07:10:04;;;;;;;50.20;22.13;;;2.70;99.90;;;0.28;100.00;100200.44;10528649;28;20528;-79
2022/12/22 07:15:09;;;;;;;61.57;27.40;;;2.70;99.90;;;0.26;100.00;100200.56;10556984;28;20056;-79
2022/12/22 07:20:13;;;;;;;65.33;28.60;;;2.70;99.90;;;0.26;100.00;100196.16;10524457;28;20396;-79
2022/12/22 07:25:16;;;;;;;68.30;29.33;;;2.70;99.90;;;0.28;100.00;100195.22;10550004;28;20455;-79
2022/12/22 07:30:18;;;;;;;67.23;27.33;;;2.70;99.90;;;0.34;100.00;100194.81;10529232;28;20061;-79
2022/12/22 07:35:21;;;;;;;66.53;29.33;;;2.70;99.90;;;0.36;100.00;100195.53;10534483;28;20060;-78
2022/12/22 07:40:24;;;;;;;66.53;26.57;;;2.80;99.90;;;0.44;100.00;100190.63;10532113;28;20424;-79
2022/12/22 07:45:28;;;;;;;59.23;28.63;;;2.80;99.90;;;0.50;100.00;100190.22;10548241;28;20419;-78
2022/12/22 07:50:31;;;;;;;81.77;33.90;;;2.90;99.90;;;0.58;100.00;100195.75;10540992;28;20056;-78
2022/12/22 07:55:36;;;;;;;70.33;30.23;;;2.90;99.90;;;0.66;100.00;100193.47;10564308;28;20084;-79
2022/12/22 08:00:38;;;;;;;89.20;34.87;;;3.00;99.90;;;0.78;100.00;100199.63;10558450;28;20507;-78
2022/12/22 08:05:42;;;;;;;73.10;33.00;;;3.20;99.90;;;0.98;100.00;100199.09;10547135;28;20098;-78
2022/12/22 08:10:44;;;;;;;75.17;34.73;;;3.30;99.90;;;1.24;100.00;100194.63;10551465;28;20056;-79
2022/12/22 08:15:47;;;;;;;60.10;28.63;;;3.60;99.90;;;1.59;100.00;100184.28;10565669;28;20056;-79
2022/12/22 08:20:51;;;;;;;60.20;27.97;;;3.90;99.90;;;2.01;100.00;100181.25;10525910;28;20075;-80
2022/12/22 08:26:17;;;;;;;54.80;24.63;;;4.30;99.90;;;2.37;100.00;100170.63;10535392;28;20064;-79
2022/12/22 08:31:24;;;;;;;64.47;30.57;;;4.70;99.90;;;2.57;100.00;100170.88;10570187;27;20068;-79
2022/12/22 08:36:29;;;;;;;49.10;23.20;;;4.90;99.90;;;2.69;100.00;100178.66;10565586;28;20059;-80
2022/12/22 08:41:48;;;;;;;46.17;23.20;;;5.00;99.90;;;2.72;100.00;100176.75;10545914;28;20116;-80
2022/12/22 08:46:54;;;;;;;40.30;21.07;;;5.10;99.90;;;2.66;100.00;100186.78;10540126;28;20055;-80
2022/12/22 08:51:57;;;;;;;49.27;24.33;;;5.10;99.90;;;2.56;100.00;100182.34;10549142;28;20060;-80
2022/12/22 08:57:00;;;;;;;48.40;22.70;;;5.00;99.90;;;2.45;100.00;100177.91;10549280;28;20060;-80
2022/12/22 09:02:04;;;;;;;58.93;27.67;;;4.90;99.90;;;2.37;100.00;100173.25;10568405;28;20086;-80
2022/12/22 09:07:07;;;;;;;53.40;24.30;;;4.80;99.90;;;2.34;100.00;100181.38;10523105;28;20060;-80
2022/12/22 09:12:11;;;;;;;51.13;24.27;;;4.80;99.90;;;2.36;100.00;100171.59;10556584;28;20522;-80
2022/12/22 09:17:13;;;;;;;60.13;27.27;;;4.80;99.90;;;2.44;100.00;100164.91;10550135;28;20080;-80
2022/12/22 09:22:16;;;;;;;50.47;24.17;;;4.80;99.90;;;2.41;100.00;100155.50;10550085;28;20053;-80
2022/12/22 09:27:29;;;;;;;53.40;25.53;;;4.80;99.90;;;2.38;100.00;100140.81;10535497;28;20063;-80
2022/12/22 09:32:33;;;;;;;48.47;22.60;;;4.80;99.90;;;2.39;100.00;100132.00;10565993;28;20056;-80
2022/12/22 09:37:36;;;;;;;49.93;22.83;;;4.80;99.90;;;2.44;100.00;100142.13;10524866;28;20057;-80
2022/12/22 09:42:39;;;;;;;51.70;25.23;;;4.90;99.90;;;2.42;100.00;100142.25;10564111;28;20497;-80
2022/12/22 09:47:44;;;;;;;45.73;22.93;;;4.80;99.90;;;2.46;100.00;100142.00;10530110;28;20064;-80
2022/12/22 09:52:55;;;;;;;53.37;25.63;;;4.80;99.90;;;2.45;100.00;100133.31;10549626;28;20136;-80
2022/12/22 09:57:58;;;;;;;114.00;44.78;;;4.80;99.90;;;2.44;100.00;100129.03;10543781;28;20052;-80
2022/12/22 10:03:27;;;;;;;65.43;29.67;;;4.80;99.90;;;2.37;100.00;100127.84;10556448;28;20052;-80
2022/12/22 10:08:37;;;;;;;58.50;25.93;;;4.80;99.90;;;2.33;100.00;100116.72;10557240;28;20135;-80
2022/12/22 10:13:40;;;;;;;59.17;26.93;;;4.70;99.90;;;2.37;100.00;100120.78;10575893;28;20419;-80
2022/12/22 10:19:09;;;;;;;60.17;27.07;;;4.80;99.90;;;2.47;100.00;100110.44;10553141;28;20071;-80
2022/12/22 10:24:27;;;;;;;51.67;24.00;;;4.90;99.90;;;2.66;100.00;100107.22;10518857;28;20057;-80
2022/12/22 10:29:33;;;;;;;54.83;25.97;;;5.00;99.90;;;2.80;100.00;100090.41;10574928;27;20060;-80
2022/12/22 10:34:36;;;;;;;53.40;24.20;;;5.30;99.90;;;2.97;100.00;100089.06;10541073;28;20066;-80
2022/12/22 10:39:39;;;;;;;53.27;24.07;;;5.40;99.90;;;3.12;100.00;100082.56;10541061;28;20146;-80
2022/12/22 10:44:48;;;;;;;48.30;22.77;;;5.50;99.90;;;3.19;99.95;100078.53;10559054;28;20091;-80
2022/12/22 10:49:58;;;;;;;48.57;21.23;;;5.60;99.90;;;3.22;99.16;100076.47;10562350;28;20132;-80
2022/12/22 10:55:25;;;;;;;45.33;20.03;;;5.60;99.90;;;3.42;98.53;100071.41;10529728;28;21164;-79
2022/12/22 11:00:30;;;;;;;51.20;22.93;;;5.90;99.90;;;3.47;97.08;100085.81;10536285;28;20057;-80
2022/12/22 11:05:33;;;;;;;46.57;23.40;;;5.90;99.90;;;3.52;95.95;100071.47;10553624;28;20139;-80
2022/12/22 11:10:48;;;;;;;49.93;22.93;;;5.90;99.90;;;3.60;95.48;100050.66;10562754;28;20101;-80
2022/12/22 11:16:32;;;;;;;52.63;23.83;;;6.00;99.90;;;3.63;94.59;100055.66;10528717;28;20060;-80
2022/12/22 11:21:53;;;;;;;48.37;21.73;;;6.00;99.90;;;3.66;93.57;100052.81;10536794;28;20056;-80
2022/12/22 11:27:41;;;;;;;48.53;21.80;;;6.10;99.90;;;3.82;93.24;100034.78;10536880;28;20516;-80
2022/12/22 11:33:42;;;;;;;45.30;22.00;;;6.20;99.90;;;4.00;92.38;100046.38;10536677;28;20049;-80
2022/12/22 11:39:14;;;;;;;49.90;21.93;;;6.40;99.90;;;4.06;91.33;100046.81;10546817;28;20056;-80
2022/12/22 11:44:58;;;;;;;35.67;17.00;;;6.50;99.90;;;4.10;90.56;100037.72;10539309;28;20126;-80
2022/12/22 11:50:52;;;;;;;52.13;23.67;;;6.50;99.90;;;4.17;90.35;100044.13;10548208;28;20064;-80
2022/12/22 11:56:31;;;;;;;43.47;20.07;;;6.60;99.90;;;4.21;89.97;100042.91;10563088;28;20114;-80
2022/12/22 12:01:46;;;;;;;50.00;22.57;;;6.60;99.90;;;4.14;89.49;100044.34;10547061;28;20096;-79
2022/12/22 12:07:10;;;;;;;50.07;24.93;;;6.60;99.90;;;4.05;89.12;100032.00;10562738;28;20118;-79
2022/12/22 12:13:02;;;;;;;48.57;22.90;;;6.50;99.90;;;3.97;89.14;100024.78;10547788;28;20130;-80
2022/12/22 12:18:34;;;;;;;49.87;22.27;;;6.40;99.90;;;3.87;88.99;100029.97;10539872;28;20079;-80
2022/12/22 12:24:19;;;;;;;44.20;20.92;;;6.30;99.90;;;3.79;88.87;100048.19;10551150;28;20113;-80
2022/12/22 12:29:34;;;;;;;44.37;20.80;;;6.20;99.90;;;3.74;88.86;100071.38;10549948;28;20513;-80
2022/12/22 12:34:45;;;;;;;51.03;22.73;;;6.20;99.90;;;3.74;89.08;100077.47;10575413;27;20075;-79
2022/12/22 12:40:38;;;;;;;35.07;16.70;;;6.20;99.90;;;3.68;88.88;100075.34;10553804;27;20056;-80
2022/12/22 12:45:45;;;;;;;52.13;23.25;;;6.10;99.90;;;3.61;89.10;100070.75;10553258;28;20491;-80
2022/12/22 12:50:56;;;;;;;51.13;22.63;;;6.00;99.90;;;3.53;89.32;100052.13;10535188;28;20053;-80
2022/12/22 12:56:04;;;;;;;49.45;21.55;;;6.00;99.90;;;3.46;89.26;100051.78;10545878;28;20060;-80
2022/12/22 13:01:12;;;;;;;61.73;26.47;;;5.90;99.90;;;3.40;89.47;100082.03;10530562;28;20060;-80
2022/12/22 13:06:48;;;;;;;82.07;35.93;;;5.80;99.90;;;3.28;89.84;100038.38;10549733;27;20080;-80
2022/12/22 13:11:55;;;;;;;69.57;32.87;;;5.70;99.90;;;3.14;90.51;100012.41;10551501;28;20060;-80
2022/12/22 13:17:40;;;;;;;65.80;29.30;;;5.60;99.90;;;3.05;91.67;100007.91;10550005;28;20080;-80
2022/12/22 13:22:44;;;;;;;65.77;30.97;;;5.50;99.90;;;3.01;92.41;100009.13;10554279;28;20056;-80
2022/12/22 13:27:49;;;;;;;75.30;32.53;;;5.40;99.90;;;2.94;92.88;99990.41;10539179;28;20064;-80
2022/12/22 13:32:54;;;;;;;71.77;33.00;;;5.40;99.90;;;2.86;93.34;99988.38;10528126;28;20068;-80
2022/12/22 13:37:57;;;;;;;74.23;31.27;;;5.30;99.90;;;2.81;93.87;99985.28;10567968;28;20051;-79
2022/12/22 13:43:13;;;;;;;58.00;27.10;;;5.20;99.90;;;2.77;94.12;99978.66;10561394;28;20088;-80
2022/12/22 13:48:41;;;;;;;59.03;29.20;;;5.20;99.90;;;2.72;94.64;99970.31;10562323;28;20524;-81
2022/12/22 13:54:21;;;;;;;58.20;29.42;;;5.10;99.90;;;2.67;95.03;99967.22;10556475;28;20052;-80
2022/12/22 13:59:44;;;;;;;72.13;31.57;;;5.10;99.90;;;2.60;94.96;99974.75;10543698;28;20530;-78
2022/12/22 14:05:08;;;;;;;70.33;30.33;;;5.00;99.90;;;2.53;94.96;99981.44;10550743;28;20060;-80
2022/12/22 14:10:11;;;;;;;57.30;27.17;;;4.90;99.90;;;2.50;95.33;99965.94;10557409;28;20067;-79
2022/12/22 14:15:18;;;;;;;66.07;29.23;;;4.90;99.90;;;2.46;95.45;99980.25;10547171;28;20060;-79
2022/12/22 14:20:32;;;;;;;56.47;26.47;;;4.80;99.90;;;2.42;95.68;100002.44;10566372;27;20063;-78
2022/12/22 14:25:42;;;;;;;73.83;33.03;;;4.80;99.90;;;2.37;95.54;99989.66;10549346;28;20067;-79
2022/12/22 14:30:50;;;;;;;77.73;32.07;;;4.80;99.90;;;2.32;95.90;99991.81;10539377;28;20056;-79
2022/12/22 14:36:23;;;;;;;79.37;34.90;;;4.70;99.90;;;2.27;96.57;99991.34;10569299;28;20060;-79
2022/12/22 14:41:50;;;;;;;71.37;30.47;;;4.60;99.90;;;2.26;96.68;99986.22;10553342;28;20064;-79
2022/12/22 14:47:13;;;;;;;83.77;33.50;;;4.60;99.90;;;2.26;97.28;99981.81;10535313;28;20389;-80
2022/12/22 14:52:24;;;;;;;59.30;27.10;;;4.60;99.90;;;2.23;97.63;99976.00;10565999;28;20067;-79
2022/12/22 14:57:35;;;;;;;79.20;32.97;;;4.60;99.90;;;2.20;98.20;99982.28;10541802;28;20060;-80
2022/12/22 15:02:54;;;;;;;129.05;49.42;;;4.60;99.90;;;2.17;98.29;99985.16;10542233;28;20060;-80
2022/12/22 15:07:57;;;;;;;80.47;33.93;;;4.60;99.90;;;2.14;98.93;99967.03;10549357;28;20063;-79
2022/12/22 15:13:23;;;;;;;71.07;32.13;;;4.50;99.90;;;2.12;99.25;99958.47;10549089;28;20558;-79
2022/12/22 15:18:27;;;;;;;73.30;29.27;;;4.50;99.90;;;2.09;99.43;99966.56;10545542;28;20110;-79
2022/12/22 15:23:30;;;;;;;74.70;32.03;;;4.50;99.90;;;2.07;99.80;99958.81;10562287;28;20067;-77
2022/12/22 15:28:33;;;;;;;81.20;35.63;;;4.50;99.90;;;2.06;100.00;99945.84;10569683;28;20052;-77
2022/12/22 15:33:37;;;;;;;98.10;43.23;;;4.40;99.90;;;2.03;100.00;99946.91;10535759;28;20064;-77
2022/12/22 15:38:40;;;;;;;96.43;43.27;;;4.40;99.90;;;2.02;100.00;99944.41;10549055;28;20424;-77
2022/12/22 15:43:43;;;;;;;76.07;34.27;;;4.30;99.90;;;2.01;100.00;99937.50;10558872;27;20140;-78
2022/12/22 15:49:02;;;;;;;67.10;31.77;;;4.40;99.90;;;1.99;100.00;99942.03;10528158;28;20048;-78
2022/12/22 15:54:12;;;;;;;69.97;31.57;;;4.40;99.90;;;2.00;100.00;99946.31;10553280;28;20071;-78
2022/12/22 15:59:21;;;;;;;59.47;28.37;;;4.40;99.90;;;1.97;100.00;99938.69;10537378;28;20144;-78
2022/12/22 16:04:27;;;;;;;65.93;30.50;;;4.30;99.90;;;1.99;100.00;99947.28;10558336;28;20075;-78
2022/12/22 16:09:41;;;;;;;83.93;36.83;;;4.30;99.90;;;1.99;100.00;99965.63;10568999;28;20066;-78
2022/12/22 16:14:51;;;;;;;77.27;33.30;;;4.40;99.90;;;2.00;100.00;99964.66;10566609;28;20056;-78
2022/12/22 16:19:54;;;;;;;64.30;30.47;;;4.40;99.90;;;1.98;100.00;99958.69;10567195;28;20052;-78
2022/12/22 16:25:00;;;;;;;81.80;34.23;;;4.30;99.90;;;1.98;100.00;99954.31;10550142;28;20060;-78
2022/12/22 16:30:04;;;;;;;64.57;30.73;;;4.30;99.90;;;1.98;100.00;99954.31;10535899;28;20496;-78
2022/12/22 16:35:11;;;;;;;68.37;31.57;;;4.40;99.90;;;2.00;100.00;99955.00;10551141;28;20083;-78
2022/12/22 16:40:18;;;;;;;92.63;36.50;;;4.40;99.90;;;2.02;100.00;99952.28;10549674;28;20420;-78
2022/12/22 16:45:24;;;;;;;70.50;31.93;;;4.40;99.90;;;2.02;100.00;99955.72;10542493;28;20056;-78
2022/12/22 16:50:31;;;;;;;86.63;35.60;;;4.40;99.90;;;2.02;100.00;99953.09;10514632;28;20052;-78
2022/12/22 16:55:35;;;;;;;99.27;43.23;;;4.40;99.90;;;2.01;100.00;99955.84;10589109;27;20063;-78
2022/12/22 17:00:40;;;;;;;82.00;36.53;;;4.40;99.90;;;2.02;100.00;99957.50;10569473;28;20064;-79
2022/12/22 17:06:00;;;;;;;78.53;32.43;;;4.40;99.90;;;2.00;100.00;99954.19;10563036;28;20057;-78
2022/12/22 17:11:08;;;;;;;86.00;35.13;;;4.40;99.90;;;2.02;100.00;99962.75;10583315;28;20060;-78
2022/12/22 17:16:21;;;;;;;72.80;31.70;;;4.40;99.90;;;1.99;100.00;99968.25;10566452;27;20060;-85
2022/12/22 17:21:27;;;;;;;83.70;34.27;;;4.40;99.90;;;1.96;100.00;99958.00;10544264;28;20067;-82
2022/12/22 17:26:33;;;;;;;90.33;36.13;;;4.40;99.90;;;1.99;100.00;99957.75;10533019;28;20055;-82
2022/12/22 17:31:36;;;;;;;85.60;34.57;;;4.40;99.90;;;1.98;100.00;99966.56;10560080;28;20067;-78
2022/12/22 17:36:39;;;;;;;88.17;37.17;;;4.40;99.90;;;1.98;100.00;99956.06;10558314;28;20518;-77
2022/12/22 17:41:43;;;;;;;77.57;34.43;;;4.30;99.90;;;1.96;100.00;99956.19;10531147;28;20462;-80
2022/12/22 17:46:46;;;;;;;102.07;41.53;;;4.30;99.90;;;1.94;100.00;99949.41;10568088;28;20063;-79
2022/12/22 17:51:49;;;;;;;70.20;32.57;;;4.30;99.90;;;1.91;100.00;99954.88;10532790;28;20060;-79
2022/12/22 17:57:02;;;;;;;82.07;37.40;;;4.30;99.90;;;1.90;100.00;99958.47;10563087;27;20116;-79
2022/12/22 18:02:05;;;;;;;98.63;41.40;;;4.30;99.90;;;1.90;100.00;99954.06;10567910;28;20064;-79
2022/12/22 18:07:08;;;;;;;67.77;32.00;;;4.30;99.90;;;1.91;100.00;99954.88;10567752;28;20442;-79
2022/12/22 18:12:23;;;;;;;86.10;37.60;;;4.30;99.90;;;1.91;100.00;99949.63;10571740;28;20064;-79
2022/12/22 18:17:29;;;;;;;102.60;39.70;;;4.30;99.90;;;1.90;100.00;99958.47;10538354;28;20106;-80
2022/12/22 18:22:37;;;;;;;78.07;34.65;;;4.30;99.90;;;1.88;100.00;99951.56;10557185;28;20060;-82
2022/12/22 18:27:40;;;;;;;72.43;32.83;;;4.30;99.90;;;1.87;100.00;99955.13;10536653;28;20056;-80
2022/12/22 18:32:44;;;;;;;76.47;32.63;;;4.30;99.90;;;1.88;100.00;99953.34;10565826;28;20113;-80
2022/12/22 18:37:48;;;;;;;102.27;40.07;;;4.30;99.90;;;1.88;100.00;99938.44;10584846;27;20083;-80
2022/12/22 18:42:52;;;;;;;77.17;35.77;;;4.30;99.90;;;1.87;100.00;99928.94;10530128;28;20068;-80
2022/12/22 18:47:56;;;;;;;83.27;35.17;;;4.30;99.90;;;1.88;100.00;99914.88;10508102;28;20053;-80
2022/12/22 18:53:07;;;;;;;105.13;41.30;;;4.30;99.90;;;1.87;100.00;99915.84;10533254;28;20087;-80
2022/12/22 18:58:14;;;;;;;101.10;42.83;;;4.30;99.90;;;1.87;100.00;99931.56;10524340;28;20069;-80
2022/12/22 19:03:17;;;;;;;89.43;38.10;;;4.20;99.90;;;1.83;100.00;99917.00;10523657;28;20407;-80
2022/12/22 19:08:26;;;;;;;76.40;35.70;;;4.20;99.90;;;1.81;100.00;99905.81;10540362;28;20088;-80
2022/12/22 19:13:36;;;;;;;82.00;35.27;;;4.10;99.90;;;1.79;100.00;99909.50;10524964;28;20516;-80
2022/12/22 19:18:40;;;;;;;71.63;31.70;;;4.10;99.90;;;1.79;100.00;99902.47;10532054;28;20063;-80
2022/12/22 19:23:43;;;;;;;86.40;33.37;;;4.10;99.90;;;1.80;100.00;99895.44;10565646;28;20060;-80
2022/12/22 19:28:50;;;;;;;77.90;32.53;;;4.10;99.90;;;1.79;100.00;99876.28;10548995;28;20064;-81
2022/12/22 19:33:57;;;;;;;75.77;31.83;;;4.20;99.90;;;1.79;100.00;99868.41;10548363;28;20318;-80
2022/12/22 19:39:00;;;;;;;93.27;34.97;;;4.20;99.90;;;1.78;100.00;99869.38;10557905;28;20086;-80
2022/12/22 19:44:26;;;;;;;105.07;38.03;;;4.20;99.90;;;1.77;100.00;99879.97;10538888;28;20092;-80
2022/12/22 19:49:29;;;;;;;;;;;4.20;99.90;;;1.74;100.00;99878.44;10577607;27;20064;-80
2022/12/22 19:54:32;;;;;;;94.13;36.33;;;4.10;99.90;;;1.72;100.00;99862.00;10560275;28;19928;-80
2022/12/22 19:59:42;;;;;;;88.60;39.33;;;4.10;99.90;;;1.71;100.00;99865.56;10578368;28;20066;-82
2022/12/22 20:04:47;;;;;;;93.03;35.07;;;4.10;99.90;;;1.73;100.00;99868.91;10526305;28;20416;-81
2022/12/22 20:09:51;;;;;;;90.97;35.57;;;4.10;99.90;;;1.74;100.00;99862.72;10521564;28;20084;-81
2022/12/22 20:14:53;;;;;;;78.20;32.63;;;4.10;99.90;;;1.78;100.00;99861.50;10539955;28;20231;-81
2022/12/22 20:19:56;;;;;;;88.33;36.60;;;4.10;99.90;;;1.80;100.00;99856.16;10560489;28;20084;-82
2022/12/22 20:24:59;;;;;;;75.33;33.07;;;4.20;99.90;;;1.81;100.00;99853.44;10562039;28;20060;-83
2022/12/22 20:30:02;;;;;;;76.43;33.37;;;4.20;99.90;;;1.85;100.00;99854.84;10536082;28;20078;-81
2022/12/22 20:35:05;;;;;;;84.23;37.80;;;4.20;99.90;;;1.87;100.00;99866.03;10533645;28;20091;-79
2022/12/22 20:40:29;;;;;;;108.57;39.97;;;4.20;99.90;;;1.88;100.00;99838.88;10537513;28;20080;-81
2022/12/22 20:45:32;;;;;;;88.67;37.30;;;4.30;99.90;;;1.93;100.00;99848.19;10547289;28;20147;-80
2022/12/22 20:50:35;;;;;;;102.43;41.47;;;4.30;99.90;;;1.95;100.00;99841.03;10549048;28;20056;-81
2022/12/22 20:55:39;;;;;;;104.37;42.87;;;4.30;99.90;;;1.95;100.00;99836.59;10547761;28;20495;-81
2022/12/22 21:00:42;;;;;;;99.57;44.47;;;4.30;99.90;;;1.94;100.00;99849.84;10533374;28;20059;-81
2022/12/22 21:05:46;;;;;;;106.03;50.30;;;4.30;99.90;;;1.96;100.00;99845.31;10562591;28;20064;-80
2022/12/22 21:10:52;;;;;;;126.07;54.57;;;4.30;99.90;;;1.95;100.00;99843.63;10546986;28;20514;-81
2022/12/22 21:15:57;;;;;;;112.40;49.13;;;4.30;99.90;;;1.97;100.00;99846.97;10559112;28;20118;-81
2022/12/22 21:21:00;;;;;;;97.67;48.40;;;4.30;99.90;;;1.97;100.00;99839.09;10540495;28;20150;-81
2022/12/22 21:26:07;;;;;;;106.17;45.97;;;4.30;99.90;;;1.99;100.00;99835.41;10549648;28;20447;-78
2022/12/22 21:31:10;;;;;;;104.90;46.27;;;4.30;99.90;;;2.00;100.00;99838.88;10542475;28;20499;-80
2022/12/22 21:36:29;;;;;;;105.70;46.00;;;4.30;99.90;;;2.02;100.00;99850.06;10534140;28;20111;-80
2022/12/22 21:46:55;;;;;;;107.50;48.28;;;4.40;99.90;;;2.05;100.00;99824.44;10566646;28;20118;-79
2022/12/22 21:51:58;;;;;;;102.10;45.43;;;4.40;99.90;;;2.09;100.00;99828.47;10554177;28;20162;-80
2022/12/22 21:57:01;;;;;;;96.30;41.67;;;4.40;99.90;;;2.12;100.00;99827.41;10528662;28;20068;-79
2022/12/22 22:02:16;;;;;;;101.07;47.93;;;4.40;99.90;;;2.14;100.00;99825.47;10551673;28;20060;-80
2022/12/22 22:07:20;;;;;;;104.23;43.67;;;4.40;99.90;;;2.15;100.00;99821.91;10557217;28;20052;-79
2022/12/22 22:12:31;;;;;;;116.03;47.93;;;4.50;99.90;;;2.16;100.00;99818.34;10539678;28;20500;-80
2022/12/22 22:17:35;;;;;;;100.80;43.80;;;4.50;99.90;;;2.21;100.00;99821.41;10534574;28;20067;-79
2022/12/22 22:22:37;;;;;;;107.93;43.87;;;4.50;99.90;;;2.24;100.00;99836.91;10537223;28;20067;-79
2022/12/22 22:27:41;;;;;;;88.23;40.60;;;4.60;99.90;;;2.26;100.00;99818.41;10564357;28;20064;-79
2022/12/22 22:32:50;;;;;;;85.43;38.07;;;4.60;99.90;;;2.32;100.00;99807.44;10552769;28;20064;-79
2022/12/22 22:37:53;;;;;;;96.47;40.43;;;4.60;99.90;;;2.36;100.00;99811.47;10561199;27;20515;-78
2022/12/22 22:42:56;;;;;;;84.63;35.77;;;4.70;99.90;;;2.38;100.00;99807.75;10543797;28;20052;-79
2022/12/22 22:48:00;;;;;;;75.27;35.23;;;4.70;99.90;;;2.40;100.00;99813.75;10559192;28;20556;-79
2022/12/22 22:53:11;;;;;;;89.90;38.23;;;4.70;99.90;;;2.41;100.00;99812.78;10563165;28;20064;-79
2022/12/22 22:58:14;;;;;;;75.60;35.77;;;4.80;99.90;;;2.46;100.00;99808.94;10517610;28;20061;-79
2022/12/22 23:03:17;;;;;;;78.40;34.90;;;4.80;99.90;;;2.49;100.00;99798.19;10555183;28;20528;-79
2022/12/22 23:08:20;;;;;;;78.90;35.87;;;4.80;99.90;;;2.51;100.00;99798.91;10533430;28;20535;-79
2022/12/22 23:13:22;;;;;;;101.93;39.50;;;4.90;99.90;;;2.53;100.00;99789.13;10527939;28;20110;-79
2022/12/22 23:18:28;;;;;;;104.27;43.30;;;4.90;99.90;;;2.50;100.00;99784.94;10564588;28;20087;-79
2022/12/22 23:23:33;;;;;;;70.53;35.40;;;4.90;99.90;;;2.48;100.00;99773.75;10542172;28;20102;-79
2022/12/22 23:28:37;;;;;;;89.60;41.50;;;4.80;99.90;;;2.49;100.00;99761.47;10553838;28;20056;-79
2022/12/22 23:33:40;;;;;;;111.97;43.53;;;4.80;99.90;;;2.48;100.00;99778.19;10560288;28;20625;-79
2022/12/22 23:38:43;;;;;;;101.17;40.50;;;4.80;99.90;;;2.48;100.00;99786.03;10551647;28;20060;-78
2022/12/22 23:43:46;;;;;;;90.30;39.70;;;4.80;99.90;;;2.47;100.00;99789.63;10559451;28;20067;-78
2022/12/22 23:48:56;;;;;;;104.47;42.10;;;4.80;99.90;;;2.46;100.00;99795.81;10555988;28;20067;-79
2022/12/22 23:54:00;;;;;;;92.93;38.40;;;4.80;99.90;;;2.47;100.00;99784.38;10563888;28;20060;-79
2022/12/22 23:59:03;;;;;;;85.60;36.73;;;4.80;99.90;;;2.45;100.00;99794.97;10564691;28;20466;-78
